sensor_id;sensor_type;location;lat;lon;timestamp;pressure;altitude;pressure_sealevel;temperature;humidity
11440;BME280;5776;51.814;4.510;2023-02-16T00:01:29;102441.72;;;6.83;100.00
11440;BME280;5776;51.814;4.510;2023-02-16T00:03:56;102434.44;;;6.83;100.00
11440;BME280;5776;51.814;4.510;2023-02-16T00:06:24;102438.19;;;6.82;100.00
11440;BME280;5776;51.814;4.510;2023-02-16T00:08:52;102441.47;;;6.84;100.00
11440;BME280;5776;51.814;4.510;2023-02-16T00:11:32;102427.75;;;6.86;100.00
11440;BME280;5776;51.814;4.510;2023-02-16T00:14:19;102431.28;;;6.86;100.00
11440;BME280;5776;51.814;4.510;2023-02-16T00:16:48;102433.59;;;6.83;100.00
11440;BME280;5776;51.814;4.510;2023-02-16T00:19:19;102429.25;;;6.82;100.00
11440;BME280;5776;51.814;4.510;2023-02-16T00:21:46;102418.88;;;6.79;100.00
11440;BME280;5776;51.814;4.510;2023-02-16T00:24:13;102419.97;;;6.78;100.00
11440;BME280;5776;51.814;4.510;2023-02-16T00:26:40;102411.47;;;6.74;100.00
11440;BME280;5776;51.814;4.510;2023-02-16T00:29:12;102423.09;;;6.75;100.00
11440;BME280;5776;51.814;4.510;2023-02-16T00:31:39;102411.47;;;6.74;100.00
11440;BME280;5776;51.814;4.510;2023-02-16T00:34:36;102421.44;;;6.74;100.00
11440;BME280;5776;51.814;4.510;2023-02-16T00:37:12;102419.34;;;6.76;100.00
11440;BME280;5776;51.814;4.510;2023-02-16T00:39:39;102412.31;;;6.75;100.00
11440;BME280;5776;51.814;4.510;2023-02-16T00:42:12;102417.72;;;6.75;100.00
11440;BME280;5776;51.814;4.510;2023-02-16T00:44:50;102419.56;;;6.74;100.00
11440;BME280;5776;51.814;4.510;2023-02-16T00:47:19;102418.13;;;6.71;100.00
11440;BME280;5776;51.814;4.510;2023-02-16T00:49:48;102416.69;;;6.69;100.00
11440;BME280;5776;51.814;4.510;2023-02-16T00:55:01;102404.72;;;6.65;100.00
11440;BME280;5776;51.814;4.510;2023-02-16T00:57:31;102407.84;;;6.62;100.00
11440;BME280;5776;51.814;4.510;2023-02-16T01:00:04;102407.03;;;6.61;100.00
11440;BME280;5776;51.814;4.510;2023-02-16T01:02:31;102398.56;;;6.58;100.00
11440;BME280;5776;51.814;4.510;2023-02-16T01:04:57;102396.47;;;6.60;100.00
11440;BME280;5776;51.814;4.510;2023-02-16T01:07:22;102393.97;;;6.58;100.00
11440;BME280;5776;51.814;4.510;2023-02-16T01:10:07;102395.03;;;6.57;100.00
11440;BME280;5776;51.814;4.510;2023-02-16T01:12:52;102397.13;;;6.55;100.00
11440;BME280;5776;51.814;4.510;2023-02-16T01:15:21;102398.75;;;6.56;100.00
11440;BME280;5776;51.814;4.510;2023-02-16T01:17:47;102405.44;;;6.54;100.00
11440;BME280;5776;51.814;4.510;2023-02-16T01:20:20;102400.50;;;6.51;100.00
11440;BME280;5776;51.814;4.510;2023-02-16T01:22:46;102398.59;;;6.51;100.00
11440;BME280;5776;51.814;4.510;2023-02-16T01:25:13;102399.22;;;6.53;100.00
11440;BME280;5776;51.814;4.510;2023-02-16T01:27:40;102400.28;;;6.52;100.00
11440;BME280;5776;51.814;4.510;2023-02-16T01:30:12;102402.97;;;6.52;100.00
11440;BME280;5776;51.814;4.510;2023-02-16T01:32:39;102400.50;;;6.51;100.00
11440;BME280;5776;51.814;4.510;2023-02-16T01:35:05;102385.34;;;6.49;100.00
11440;BME280;5776;51.814;4.510;2023-02-16T01:37:31;102394.47;;;6.48;100.00
11440;BME280;5776;51.814;4.510;2023-02-16T01:39:57;102395.53;;;6.47;100.00
11440;BME280;5776;51.814;4.510;2023-02-16T01:42:46;102377.69;;;6.46;100.00
11440;BME280;5776;51.814;4.510;2023-02-16T01:45:19;102379.34;;;6.47;100.00
11440;BME280;5776;51.814;4.510;2023-02-16T01:47:58;102381.81;;;6.49;100.00
11440;BME280;5776;51.814;4.510;2023-02-16T01:50:53;102377.47;;;6.48;100.00
11440;BME280;5776;51.814;4.510;2023-02-16T01:53:27;102380.78;;;6.50;100.00
11440;BME280;5776;51.814;4.510;2023-02-16T01:55:59;102381.81;;;6.49;100.00
11440;BME280;5776;51.814;4.510;2023-02-16T01:58:34;102384.75;;;6.47;100.00
11440;BME280;5776;51.814;4.510;2023-02-16T02:03:35;102388.47;;;6.46;100.00
11440;BME280;5776;51.814;4.510;2023-02-16T02:06:30;102385.16;;;6.44;100.00
11440;BME280;5776;51.814;4.510;2023-02-16T02:09:23;102382.72;;;6.43;100.00
11440;BME280;5776;51.814;4.510;2023-02-16T02:14:38;102374.63;;;6.43;100.00
11440;BME280;5776;51.814;4.510;2023-02-16T02:17:12;102371.91;;;6.43;100.00
11440;BME280;5776;51.814;4.510;2023-02-16T02:38:41;102337.50;;;6.38;100.00
11440;BME280;5776;51.814;4.510;2023-02-16T02:41:34;102340.19;;;6.38;100.00
11440;BME280;5776;51.814;4.510;2023-02-16T02:44:23;102335.00;;;6.37;100.00
11440;BME280;5776;51.814;4.510;2023-02-16T02:46:51;102329.59;;;6.37;100.00
11440;BME280;5776;51.814;4.510;2023-02-16T02:49:17;102326.09;;;6.36;100.00
11440;BME280;5776;51.814;4.510;2023-02-16T02:51:43;102318.00;;;6.36;100.00
11440;BME280;5776;51.814;4.510;2023-02-16T02:54:28;102326.69;;;6.38;100.00
11440;BME280;5776;51.814;4.510;2023-02-16T03:00:23;102305.94;;;6.39;100.00
11440;BME280;5776;51.814;4.510;2023-02-16T03:03:28;102312.13;;;6.39;100.00
11440;BME280;5776;51.814;4.510;2023-02-16T03:06:08;102308.41;;;6.40;100.00
11440;BME280;5776;51.814;4.510;2023-02-16T03:08:36;102314.63;;;6.41;100.00
11440;BME280;5776;51.814;4.510;2023-02-16T03:11:15;102320.03;;;6.41;100.00
11440;BME280;5776;51.814;4.510;2023-02-16T03:14:06;102320.03;;;6.41;100.00
11440;BME280;5776;51.814;4.510;2023-02-16T03:16:37;102334.13;;;6.43;100.00
11440;BME280;5776;51.814;4.510;2023-02-16T03:19:07;102336.97;;;6.48;100.00
11440;BME280;5776;51.814;4.510;2023-02-16T03:21:54;102322.41;;;6.49;100.00
11440;BME280;5776;51.814;4.510;2023-02-16T03:24:40;102316.59;;;6.52;100.00
11440;BME280;5776;51.814;4.510;2023-02-16T03:27:28;102312.84;;;6.53;100.00
11440;BME280;5776;51.814;4.510;2023-02-16T03:30:14;102309.53;;;6.51;100.00
11440;BME280;5776;51.814;4.510;2023-02-16T03:32:42;102314.13;;;6.51;100.00
11440;BME280;5776;51.814;4.510;2023-02-16T03:35:09;102309.94;;;6.55;100.00
11440;BME280;5776;51.814;4.510;2023-02-16T03:37:39;102318.84;;;6.55;100.00
11440;BME280;5776;51.814;4.510;2023-02-16T03:40:08;102319.88;;;6.54;100.00
11440;BME280;5776;51.814;4.510;2023-02-16T03:43:00;102319.66;;;6.56;100.00
11440;BME280;5776;51.814;4.510;2023-02-16T03:45:27;102318.59;;;6.57;100.00
11440;BME280;5776;51.814;4.510;2023-02-16T03:47:53;102313.19;;;6.57;100.00
11440;BME280;5776;51.814;4.510;2023-02-16T03:50:20;102311.56;;;6.56;100.00
11440;BME280;5776;51.814;4.510;2023-02-16T03:52:46;102307.81;;;6.57;100.00
11440;BME280;5776;51.814;4.510;2023-02-16T03:55:13;102314.25;;;6.56;100.00
11440;BME280;5776;51.814;4.510;2023-02-16T03:57:39;102316.16;;;6.55;100.00
11440;BME280;5776;51.814;4.510;2023-02-16T04:00:06;102320.72;;;6.55;100.00
11440;BME280;5776;51.814;4.510;2023-02-16T04:02:32;102309.94;;;6.55;100.00
11440;BME280;5776;51.814;4.510;2023-02-16T04:04:58;102306.97;;;6.56;100.00
11440;BME280;5776;51.814;4.510;2023-02-16T04:07:24;102305.34;;;6.55;100.00
11440;BME280;5776;51.814;4.510;2023-02-16T04:09:50;102301.81;;;6.55;100.00
11440;BME280;5776;51.814;4.510;2023-02-16T04:12:15;102311.56;;;6.56;100.00
11440;BME280;5776;51.814;4.510;2023-02-16T04:15:00;102312.63;;;6.55;100.00
11440;BME280;5776;51.814;4.510;2023-02-16T04:17:26;102302.66;;;6.55;100.00
11440;BME280;5776;51.814;4.510;2023-02-16T04:19:52;102305.81;;;6.52;100.00
11440;BME280;5776;51.814;4.510;2023-02-16T04:22:17;102319.88;;;6.54;100.00
11440;BME280;5776;51.814;4.510;2023-02-16T04:24:43;102315.31;;;6.55;100.00
11440;BME280;5776;51.814;4.510;2023-02-16T04:27:09;102321.53;;;6.55;100.00
11440;BME280;5776;51.814;4.510;2023-02-16T04:29:35;102321.31;;;6.57;100.00
11440;BME280;5776;51.814;4.510;2023-02-16T04:32:01;102324.00;;;6.57;100.00
11440;BME280;5776;51.814;4.510;2023-02-16T04:34:27;102321.09;;;6.58;100.00
11440;BME280;5776;51.814;4.510;2023-02-16T04:36:53;102322.97;;;6.58;100.00
11440;BME280;5776;51.814;4.510;2023-02-16T04:39:19;102318.59;;;6.57;100.00
11440;BME280;5776;51.814;4.510;2023-02-16T04:41:45;102322.16;;;6.57;100.00
11440;BME280;5776;51.814;4.510;2023-02-16T04:44:11;102318.59;;;6.57;100.00
11440;BME280;5776;51.814;4.510;2023-02-16T04:46:37;102321.91;;;6.59;100.00
11440;BME280;5776;51.814;4.510;2023-02-16T04:49:03;102315.47;;;6.60;100.00
11440;BME280;5776;51.814;4.510;2023-02-16T04:51:29;102320.88;;;6.60;100.00
11440;BME280;5776;51.814;4.510;2023-02-16T04:53:55;102320.63;;;6.61;100.00
11440;BME280;5776;51.814;4.510;2023-02-16T04:56:21;102320.03;;;6.59;100.00
11440;BME280;5776;51.814;4.510;2023-02-16T04:58:47;102312.53;;;6.61;100.00
11440;BME280;5776;51.814;4.510;2023-02-16T05:01:20;102304.44;;;6.61;100.00
11440;BME280;5776;51.814;4.510;2023-02-16T05:03:47;102292.00;;;6.60;100.00
11440;BME280;5776;51.814;4.510;2023-02-16T05:06:13;102292.81;;;6.61;100.00
11440;BME280;5776;51.814;4.510;2023-02-16T05:08:39;102304.44;;;6.61;100.00
11440;BME280;5776;51.814;4.510;2023-02-16T05:11:05;102308.19;;;6.60;100.00
11440;BME280;5776;51.814;4.510;2023-02-16T05:13:49;102301.72;;;6.61;100.00
11440;BME280;5776;51.814;4.510;2023-02-16T05:16:33;102286.59;;;6.60;100.00
11440;BME280;5776;51.814;4.510;2023-02-16T05:18:59;102290.31;;;6.59;100.00
11440;BME280;5776;51.814;4.510;2023-02-16T05:21:25;102289.28;;;6.60;100.00
11440;BME280;5776;51.814;4.510;2023-02-16T05:24:04;102290.94;;;6.61;100.00
11440;BME280;5776;51.814;4.510;2023-02-16T05:26:31;102287.41;;;6.61;100.00
11440;BME280;5776;51.814;4.510;2023-02-16T05:28:58;102281.81;;;6.62;100.00
11440;BME280;5776;51.814;4.510;2023-02-16T05:31:24;102284.50;;;6.62;100.00
11440;BME280;5776;51.814;4.510;2023-02-16T05:33:51;102286.59;;;6.60;100.00
11440;BME280;5776;51.814;4.510;2023-02-16T05:36:17;102283.91;;;6.60;100.00
11440;BME280;5776;51.814;4.510;2023-02-16T05:38:44;102285.53;;;6.61;100.00
11440;BME280;5776;51.814;4.510;2023-02-16T05:41:10;102289.91;;;6.62;100.00
11440;BME280;5776;51.814;4.510;2023-02-16T05:43:37;102292.59;;;6.62;100.00
11440;BME280;5776;51.814;4.510;2023-02-16T05:46:07;102293.41;;;6.63;100.00
11440;BME280;5776;51.814;4.510;2023-02-16T05:48:33;102286.97;;;6.64;100.00
11440;BME280;5776;51.814;4.510;2023-02-16T05:50:59;102299.63;;;6.63;100.00
11440;BME280;5776;51.814;4.510;2023-02-16T05:53:25;102299.41;;;6.65;100.00
11440;BME280;5776;51.814;4.510;2023-02-16T05:55:51;102308.94;;;6.67;100.00
11440;BME280;5776;51.814;4.510;2023-02-16T05:58:17;102305.63;;;6.65;100.00
11440;BME280;5776;51.814;4.510;2023-02-16T06:00:43;102300.25;;;6.65;100.00
11440;BME280;5776;51.814;4.510;2023-02-16T06:03:09;102295.66;;;6.66;100.00
11440;BME280;5776;51.814;4.510;2023-02-16T06:05:35;102286.75;;;6.65;100.00
11440;BME280;5776;51.814;4.510;2023-02-16T06:08:02;102284.66;;;6.67;100.00
11440;BME280;5776;51.814;4.510;2023-02-16T06:10:28;102279.47;;;6.66;100.00
11440;BME280;5776;51.814;4.510;2023-02-16T06:12:54;102285.69;;;6.66;100.00
11440;BME280;5776;51.814;4.510;2023-02-16T06:15:20;102292.13;;;6.65;100.00
11440;BME280;5776;51.814;4.510;2023-02-16T06:17:45;102291.06;;;6.66;100.00
11440;BME280;5776;51.814;4.510;2023-02-16T06:20:11;102292.75;;;6.67;100.00
11440;BME280;5776;51.814;4.510;2023-02-16T06:22:37;102289.19;;;6.67;100.00
11440;BME280;5776;51.814;4.510;2023-02-16T06:25:04;102302.47;;;6.68;100.00
11440;BME280;5776;51.814;4.510;2023-02-16T06:27:29;102291.69;;;6.68;100.00
11440;BME280;5776;51.814;4.510;2023-02-16T06:29:56;102283.59;;;6.68;100.00
11440;BME280;5776;51.814;4.510;2023-02-16T06:32:21;102290.56;;;6.76;100.00
11440;BME280;5776;51.814;4.510;2023-02-16T06:34:47;102291.66;;;6.87;100.00
11440;BME280;5776;51.814;4.510;2023-02-16T06:37:13;102297.19;;;6.92;100.00
11440;BME280;5776;51.814;4.510;2023-02-16T06:39:39;102304.00;;;6.95;100.00
11440;BME280;5776;51.814;4.510;2023-02-16T06:42:05;102298.63;;;6.95;100.00
11440;BME280;5776;51.814;4.510;2023-02-16T06:44:31;102296.16;;;6.93;100.00
11440;BME280;5776;51.814;4.510;2023-02-16T06:46:57;102303.44;;;6.92;100.00
11440;BME280;5776;51.814;4.510;2023-02-16T06:49:22;102304.25;;;6.93;100.00
11440;BME280;5776;51.814;4.510;2023-02-16T06:51:48;102308.59;;;6.94;100.00
11440;BME280;5776;51.814;4.510;2023-02-16T06:54:15;102308.59;;;6.94;100.00
11440;BME280;5776;51.814;4.510;2023-02-16T06:56:41;102310.28;;;6.95;100.00
11440;BME280;5776;51.814;4.510;2023-02-16T06:59:07;102307.56;;;6.95;100.00
11440;BME280;5776;51.814;4.510;2023-02-16T07:01:33;102304.88;;;6.95;100.00
11440;BME280;5776;51.814;4.510;2023-02-16T07:03:59;102305.69;;;6.96;100.00
11440;BME280;5776;51.814;4.510;2023-02-16T07:06:26;102310.84;;;6.97;100.00
11440;BME280;5776;51.814;4.510;2023-02-16T07:08:53;102322.25;;;6.99;100.00
11440;BME280;5776;51.814;4.510;2023-02-16T07:11:20;102322.25;;;6.99;100.00
11440;BME280;5776;51.814;4.510;2023-02-16T07:13:46;102316.03;;;6.99;100.00
11440;BME280;5776;51.814;4.510;2023-02-16T07:16:13;102319.53;;;6.99;100.00
11440;BME280;5776;51.814;4.510;2023-02-16T07:18:39;102320.59;;;6.98;100.00
11440;BME280;5776;51.814;4.510;2023-02-16T07:21:05;102322.34;;;6.92;100.00
11440;BME280;5776;51.814;4.510;2023-02-16T07:23:32;102325.25;;;6.91;100.00
11440;BME280;5776;51.814;4.510;2023-02-16T07:25:58;102330.06;;;6.89;100.00
11440;BME280;5776;51.814;4.510;2023-02-16T07:28:24;102328.19;;;6.89;100.00
11440;BME280;5776;51.814;4.510;2023-02-16T07:30:50;102334.03;;;6.86;100.00
11440;BME280;5776;51.814;4.510;2023-02-16T07:33:17;102333.00;;;6.87;100.00
11440;BME280;5776;51.814;4.510;2023-02-16T07:35:43;102338.16;;;6.89;100.00
11440;BME280;5776;51.814;4.510;2023-02-16T07:38:09;102337.13;;;6.90;100.00
11440;BME280;5776;51.814;4.510;2023-02-16T07:40:35;102343.09;;;6.92;100.00
11440;BME280;5776;51.814;4.510;2023-02-16T07:43:03;102349.13;;;6.94;100.00
11440;BME280;5776;51.814;4.510;2023-02-16T07:45:29;102349.72;;;6.96;100.00
11440;BME280;5776;51.814;4.510;2023-02-16T07:47:57;102353.47;;;6.95;100.00
11440;BME280;5776;51.814;4.510;2023-02-16T07:50:24;102354.50;;;6.94;100.00
11440;BME280;5776;51.814;4.510;2023-02-16T07:52:50;102354.50;;;6.94;100.00
11440;BME280;5776;51.814;4.510;2023-02-16T07:55:15;102355.94;;;6.97;100.00
11440;BME280;5776;51.814;4.510;2023-02-16T07:57:41;102353.84;;;6.99;100.00
11440;BME280;5776;51.814;4.510;2023-02-16T08:00:08;102354.66;;;6.99;100.00
11440;BME280;5776;51.814;4.510;2023-02-16T08:02:34;102354.22;;;7.02;100.00
11440;BME280;5776;51.814;4.510;2023-02-16T08:05:00;102361.50;;;7.02;100.00
11440;BME280;5776;51.814;4.510;2023-02-16T08:07:26;102359.25;;;6.99;100.00
11440;BME280;5776;51.814;4.510;2023-02-16T08:09:52;102348.44;;;6.99;100.00
11440;BME280;5776;51.814;4.510;2023-02-16T08:12:19;102351.16;;;6.99;100.00
11440;BME280;5776;51.814;4.510;2023-02-16T08:14:45;102354.66;;;6.99;100.00
11440;BME280;5776;51.814;4.510;2023-02-16T08:17:14;102367.13;;;7.00;100.00
11440;BME280;5776;51.814;4.510;2023-02-16T08:19:40;102364.88;;;6.97;100.00
11440;BME280;5776;51.814;4.510;2023-02-16T08:22:07;102372.97;;;6.97;100.00
11440;BME280;5776;51.814;4.510;2023-02-16T08:24:33;102367.34;;;6.99;100.00
11440;BME280;5776;51.814;4.510;2023-02-16T08:27:02;102371.47;;;7.01;100.00
11440;BME280;5776;51.814;4.510;2023-02-16T08:29:29;102368.16;;;6.99;100.00
11440;BME280;5776;51.814;4.510;2023-02-16T08:31:55;102368.41;;;6.98;100.00
11440;BME280;5776;51.814;4.510;2023-02-16T08:34:22;102366.53;;;6.98;100.00
11440;BME280;5776;51.814;4.510;2023-02-16T08:36:54;102372.75;;;6.99;100.00
11440;BME280;5776;51.814;4.510;2023-02-16T08:39:24;102374.41;;;7.00;100.00
11440;BME280;5776;51.814;4.510;2023-02-16T08:41:50;102381.25;;;7.02;100.00
11440;BME280;5776;51.814;4.510;2023-02-16T08:44:19;102378.97;;;6.99;100.00
11440;BME280;5776;51.814;4.510;2023-02-16T08:46:46;102381.69;;;6.99;100.00
11440;BME280;5776;51.814;4.510;2023-02-16T08:49:14;102388.34;;;6.97;100.00
11440;BME280;5776;51.814;4.510;2023-02-16T08:51:44;102380.25;;;6.97;100.00
11440;BME280;5776;51.814;4.510;2023-02-16T08:54:17;102380.84;;;6.99;100.00
11440;BME280;5776;51.814;4.510;2023-02-16T08:56:44;102371.13;;;6.98;100.00
11440;BME280;5776;51.814;4.510;2023-02-16T08:59:17;102372.97;;;6.97;100.00
11440;BME280;5776;51.814;4.510;2023-02-16T09:01:43;102372.75;;;6.99;100.00
11440;BME280;5776;51.814;4.510;2023-02-16T09:04:10;102377.13;;;7.00;100.00
11440;BME280;5776;51.814;4.510;2023-02-16T09:06:38;102382.53;;;7.00;100.00
11440;BME280;5776;51.814;4.510;2023-02-16T09:09:05;102388.75;;;7.00;100.00
11440;BME280;5776;51.814;4.510;2023-02-16T09:11:30;102387.69;;;7.01;100.00
11440;BME280;5776;51.814;4.510;2023-02-16T09:13:56;102382.06;;;7.03;100.00
11440;BME280;5776;51.814;4.510;2023-02-16T09:16:23;102378.75;;;7.01;100.00
11440;BME280;5776;51.814;4.510;2023-02-16T09:18:50;102384.53;;;7.04;100.00
11440;BME280;5776;51.814;4.510;2023-02-16T09:21:19;102390.53;;;7.06;100.00
11440;BME280;5776;51.814;4.510;2023-02-16T09:23:48;102388.91;;;7.05;100.00
11440;BME280;5776;51.814;4.510;2023-02-16T09:26:16;102390.31;;;7.08;100.00
11440;BME280;5776;51.814;4.510;2023-02-16T09:28:44;102375.38;;;7.05;100.00
11440;BME280;5776;51.814;4.510;2023-02-16T09:31:31;102384.09;;;7.07;100.00
11440;BME280;5776;51.814;4.510;2023-02-16T09:36:29;102371.63;;;7.06;100.00
11440;BME280;5776;51.814;4.510;2023-02-16T09:38:55;102364.56;;;7.05;100.00
11440;BME280;5776;51.814;4.510;2023-02-16T09:41:32;102362.47;;;7.07;100.00
11440;BME280;5776;51.814;4.510;2023-02-16T09:46:25;102356.63;;;7.10;100.00
11440;BME280;5776;51.814;4.510;2023-02-16T09:48:54;102350.75;;;7.13;100.00
11440;BME280;5776;51.814;4.510;2023-02-16T09:51:46;102355.69;;;7.17;100.00
11440;BME280;5776;51.814;4.510;2023-02-16T09:57:00;102366.03;;;7.20;100.00
11440;BME280;5776;51.814;4.510;2023-02-16T09:59:35;102360.56;;;7.26;100.00
11440;BME280;5776;51.814;4.510;2023-02-16T10:07:30;102354.81;;;7.34;100.00
11440;BME280;5776;51.814;4.510;2023-02-16T10:09:58;102360.47;;;7.33;100.00
11440;BME280;5776;51.814;4.510;2023-02-16T10:12:31;102354.81;;;7.34;100.00
11440;BME280;5776;51.814;4.510;2023-02-16T10:15:06;102352.72;;;7.36;100.00
11440;BME280;5776;51.814;4.510;2023-02-16T10:17:40;102342.97;;;7.35;100.00
11440;BME280;5776;51.814;4.510;2023-02-16T10:20:24;102335.22;;;7.39;100.00
11440;BME280;5776;51.814;4.510;2023-02-16T10:26:00;102336.03;;;7.40;100.00
11440;BME280;5776;51.814;4.510;2023-02-16T10:28:41;102338.75;;;7.40;100.00
11440;BME280;5776;51.814;4.510;2023-02-16T10:34:03;102345.56;;;7.42;100.00
11440;BME280;5776;51.814;4.510;2023-02-16T10:36:55;102335.72;;;7.48;100.00
11440;BME280;5776;51.814;4.510;2023-02-16T10:39:32;102337.00;;;7.45;100.00
11440;BME280;5776;51.814;4.510;2023-02-16T10:42:28;102335.34;;;7.44;100.00
11440;BME280;5776;51.814;4.510;2023-02-16T10:47:41;102342.16;;;7.47;100.00
11440;BME280;5776;51.814;4.510;2023-02-16T10:50:38;102342.78;;;7.49;100.00
11440;BME280;5776;51.814;4.510;2023-02-16T10:53:09;102338.19;;;7.49;100.00
11440;BME280;5776;51.814;4.510;2023-02-16T10:55:37;102336.09;;;7.51;100.00
11440;BME280;5776;51.814;4.510;2023-02-16T10:58:03;102332.34;;;7.52;100.00
11440;BME280;5776;51.814;4.510;2023-02-16T11:03:09;102335.59;;;7.54;100.00
11440;BME280;5776;51.814;4.510;2023-02-16T11:05:38;102332.22;;;7.59;100.00
11440;BME280;5776;51.814;4.510;2023-02-16T11:08:06;102335.31;;;7.74;100.00
11440;BME280;5776;51.814;4.510;2023-02-16T11:10:52;102335.91;;;7.76;100.00
11440;BME280;5776;51.814;4.510;2023-02-16T11:13:28;102336.97;;;7.75;100.00
11440;BME280;5776;51.814;4.510;2023-02-16T11:15:59;102332.72;;;7.79;100.00
11440;BME280;5776;51.814;4.510;2023-02-16T11:18:32;102333.09;;;7.83;100.00
11440;BME280;5776;51.814;4.510;2023-02-16T11:20:59;102330.41;;;7.83;100.00
11440;BME280;5776;51.814;4.510;2023-02-16T11:23:43;102326.16;;;7.87;100.00
11440;BME280;5776;51.814;4.510;2023-02-16T11:33:56;102324.75;;;7.96;100.00
11440;BME280;5776;51.814;4.510;2023-02-16T11:39:16;102331.25;;;7.95;100.00
11440;BME280;5776;51.814;4.510;2023-02-16T11:41:56;102335.09;;;7.99;100.00
11440;BME280;5776;51.814;4.510;2023-02-16T11:44:33;102331.94;;;8.03;100.00
11440;BME280;5776;51.814;4.510;2023-02-16T11:47:19;102320.53;;;8.00;100.00
11440;BME280;5776;51.814;4.510;2023-02-16T11:50:05;102310.88;;;8.05;100.00
11440;BME280;5776;51.814;4.510;2023-02-16T11:52:32;102306.31;;;8.05;100.00
11440;BME280;5776;51.814;4.510;2023-02-16T11:55:00;102301.47;;;8.07;100.00
11440;BME280;5776;51.814;4.510;2023-02-16T11:57:27;102298.31;;;8.10;100.00
11440;BME280;5776;51.814;4.510;2023-02-16T11:59:55;102291.59;;;8.13;100.00
11440;BME280;5776;51.814;4.510;2023-02-16T12:05:17;102294.53;;;8.23;100.00
11440;BME280;5776;51.814;4.510;2023-02-16T12:10:40;102280.41;;;8.33;100.00
11440;BME280;5776;51.814;4.510;2023-02-16T12:13:17;102285.69;;;8.39;100.00
11440;BME280;5776;51.814;4.510;2023-02-16T12:16:00;102270.38;;;8.45;100.00
11440;BME280;5776;51.814;4.510;2023-02-16T12:21:32;102267.16;;;8.60;100.00
11440;BME280;5776;51.814;4.510;2023-02-16T12:26:47;102235.94;;;8.69;100.00
11440;BME280;5776;51.814;4.510;2023-02-16T12:35:44;102249.81;;;8.73;100.00
11440;BME280;5776;51.814;4.510;2023-02-16T12:38:27;102249.47;;;8.69;100.00
11440;BME280;5776;51.814;4.510;2023-02-16T12:44:14;102261.41;;;8.68;100.00
11440;BME280;5776;51.814;4.510;2023-02-16T12:46:50;102239.13;;;8.66;100.00
11440;BME280;5776;51.814;4.510;2023-02-16T12:49:25;102241.22;;;8.76;100.00
11440;BME280;5776;51.814;4.510;2023-02-16T12:54:30;102238.25;;;8.77;100.00
11440;BME280;5776;51.814;4.510;2023-02-16T12:57:05;102228.59;;;8.81;100.00
11440;BME280;5776;51.814;4.510;2023-02-16T13:02:26;102218.47;;;8.77;100.00
11440;BME280;5776;51.814;4.510;2023-02-16T13:05:10;102213.88;;;8.77;100.00
11440;BME280;5776;51.814;4.510;2023-02-16T13:07:41;102215.53;;;8.78;100.00
11440;BME280;5776;51.814;4.510;2023-02-16T13:10:35;102213.41;;;8.80;100.00
11440;BME280;5776;51.814;4.510;2023-02-16T13:13:11;102202.09;;;8.83;100.00
11440;BME280;5776;51.814;4.510;2023-02-16T13:15:43;102188.53;;;8.83;100.00
11440;BME280;5776;51.814;4.510;2023-02-16T13:20:45;102186.66;;;8.84;100.00
11440;BME280;5776;51.814;4.510;2023-02-16T13:45:51;102162.03;;;8.85;100.00
11440;BME280;5776;51.814;4.510;2023-02-16T13:48:23;102156.34;;;8.87;100.00
11440;BME280;5776;51.814;4.510;2023-02-16T13:50:56;102151.19;;;8.85;100.00
11440;BME280;5776;51.814;4.510;2023-02-16T13:53:22;102146.69;;;8.91;100.00
11440;BME280;5776;51.814;4.510;2023-02-16T13:58:53;102136.16;;;8.95;100.00
11440;BME280;5776;51.814;4.510;2023-02-16T14:01:35;102143.78;;;8.98;100.00
11440;BME280;5776;51.814;4.510;2023-02-16T14:04:12;102137.56;;;8.97;100.00
11440;BME280;5776;51.814;4.510;2023-02-16T14:06:40;102139.44;;;8.97;100.00
11440;BME280;5776;51.814;4.510;2023-02-16T14:12:14;102126.25;;;9.00;100.00
11440;BME280;5776;51.814;4.510;2023-02-16T14:27:58;102129.44;;;9.14;100.00
11440;BME280;5776;51.814;4.510;2023-02-16T14:30:30;102127.81;;;9.13;100.00
11440;BME280;5776;51.814;4.510;2023-02-16T14:36:05;102114.91;;;9.03;100.00
11440;BME280;5776;51.814;4.510;2023-02-16T14:38:41;102116.88;;;9.08;100.00
11440;BME280;5776;51.814;4.510;2023-02-16T14:41:25;102123.44;;;9.12;100.00
11440;BME280;5776;51.814;4.510;2023-02-16T14:57:34;102128.63;;;9.14;100.00
11440;BME280;5776;51.814;4.510;2023-02-16T15:03:13;102122.31;;;9.08;100.00
11440;BME280;5776;51.814;4.510;2023-02-16T15:05:39;102122.84;;;9.10;100.00
11440;BME280;5776;51.814;4.510;2023-02-16T15:08:16;102113.69;;;9.11;100.00
11440;BME280;5776;51.814;4.510;2023-02-16T15:10:44;102107.19;;;9.12;100.00
11440;BME280;5776;51.814;4.510;2023-02-16T15:13:21;102103.41;;;9.13;100.00
11440;BME280;5776;51.814;4.510;2023-02-16T15:15:49;102101.09;;;9.22;100.00
11440;BME280;5776;51.814;4.510;2023-02-16T15:18:20;102103.56;;;9.23;100.00
11440;BME280;5776;51.814;4.510;2023-02-16T15:20:49;102105.69;;;9.21;100.00
11440;BME280;5776;51.814;4.510;2023-02-16T15:23:26;102098.88;;;9.19;100.00
11440;BME280;5776;51.814;4.510;2023-02-16T15:25:56;102107.84;;;9.19;100.00
11440;BME280;5776;51.814;4.510;2023-02-16T15:28:29;102111.13;;;9.21;100.00
11440;BME280;5776;51.814;4.510;2023-02-16T15:31:00;102103.00;;;9.21;100.00
11440;BME280;5776;51.814;4.510;2023-02-16T15:33:35;102110.84;;;9.23;100.00
11440;BME280;5776;51.814;4.510;2023-02-16T15:36:08;102107.34;;;9.22;100.00
11440;BME280;5776;51.814;4.510;2023-02-16T15:41:24;102105.03;;;9.31;100.00
11440;BME280;5776;51.814;4.510;2023-02-16T15:43:51;102112.34;;;9.30;100.00
11440;BME280;5776;51.814;4.510;2023-02-16T15:46:43;102118.84;;;9.29;100.00
11440;BME280;5776;51.814;4.510;2023-02-16T15:49:26;102117.00;;;9.35;100.00
11440;BME280;5776;51.814;4.510;2023-02-16T15:51:54;102122.63;;;9.28;100.00
11440;BME280;5776;51.814;4.510;2023-02-16T15:54:29;102117.88;;;9.19;100.00
11440;BME280;5776;51.814;4.510;2023-02-16T15:56:57;102123.13;;;9.08;100.00
11440;BME280;5776;51.814;4.510;2023-02-16T16:02:11;102122.78;;;9.05;100.00